AUL907 URSS-URWW
Flight info
| Callsign | AUL907 |
|---|---|
| Flight time | N/A |
| Altitude | 39000 |
| Route | IRGID1S IRGID A944 BEMES DCT DETIR/K0813F380 B945 UP N50 SL SL2G |
| Aircraft | A20N/M-SDE2E3FGHIRWXY/LB1 |
Departure
| Time | 2026-05-04 17:27 |
|---|---|
| Airport | Sochi International Airport (URSS) |
Arrival
| Time | N/A |
|---|---|
| Airport | Volgograd International Airport (URWW) |
| Time | Latitude | Longitude | Altitude | Speed | Heading |
|---|---|---|---|---|---|
| 2026-05-04 16:58 | 43.44839 | 39.94441 | 61 ft | 0 kts | 335° |
| 2026-05-04 17:17 | 43.44802 | 39.94465 | 63 ft | 4 kts | 335° |
| 2026-05-04 17:18 | 43.44775 | 39.94482 | 64 ft | 4 kts | 335° |
| 2026-05-04 17:18 | 43.44730 | 39.94500 | 61 ft | 3 kts | 21° |
| 2026-05-04 17:19 | 43.44718 | 39.94489 | 60 ft | 0 kts | 61° |
| 2026-05-04 17:22 | 43.44721 | 39.94495 | 64 ft | 2 kts | 61° |
| 2026-05-04 17:23 | 43.44773 | 39.94642 | 62 ft | 9 kts | 64° |
| 2026-05-04 17:23 | 43.44804 | 39.94733 | 65 ft | 12 kts | 65° |
| 2026-05-04 17:23 | 43.44884 | 39.94966 | 69 ft | 15 kts | 66° |
| 2026-05-04 17:24 | 43.44930 | 39.95102 | 64 ft | 16 kts | 62° |
| 2026-05-04 17:24 | 43.44989 | 39.95314 | 68 ft | 0 kts | 112° |
| 2026-05-04 17:25 | 43.44987 | 39.95317 | 74 ft | 1 kts | 115° |
| 2026-05-04 17:25 | 43.44958 | 39.95353 | 67 ft | 4 kts | 148° |
| 2026-05-04 17:26 | 43.44891 | 39.95339 | 67 ft | 9 kts | 240° |
| 2026-05-04 17:26 | 43.44369 | 39.93840 | 61 ft | 142 kts | 243° |
| 2026-05-04 17:27 | 43.43673 | 39.90995 | 916 ft | 164 kts | 257° |
| 2026-05-04 17:27 | 43.42908 | 39.88054 | 2110 ft | 168 kts | 238° |
| 2026-05-04 17:28 | 43.41540 | 39.85018 | 3030 ft | 207 kts | 241° |
| 2026-05-04 17:29 | 43.42753 | 39.79058 | 4773 ft | 261 kts | 315° |
| 2026-05-04 17:29 | 43.46882 | 39.73628 | 7422 ft | 281 kts | 313° |
| 2026-05-04 17:30 | 43.51001 | 39.67592 | 10174 ft | 298 kts | 311° |
| 2026-05-04 17:31 | 43.54007 | 39.63085 | 10959 ft | 343 kts | 311° |
| 2026-05-04 17:31 | 43.59041 | 39.55549 | 13165 ft | 365 kts | 311° |
| 2026-05-04 17:32 | 43.63021 | 39.51094 | 14583 ft | 380 kts | 339° |
| 2026-05-04 17:33 | 43.70575 | 39.52218 | 16819 ft | 372 kts | 39° |
| 2026-05-04 17:33 | 43.72421 | 39.54648 | 17571 ft | 365 kts | 58° |
| 2026-05-04 17:34 | 43.74301 | 39.64468 | 19659 ft | 357 kts | 86° |
| 2026-05-04 17:34 | 43.74652 | 39.67867 | 20345 ft | 359 kts | 84° |
| 2026-05-04 17:35 | 43.76066 | 39.78162 | 22276 ft | 367 kts | 82° |
| 2026-05-04 17:35 | 43.77109 | 39.85087 | 23602 ft | 370 kts | 82° |
| 2026-05-04 17:35 | 43.77634 | 39.88584 | 24076 ft | 373 kts | 81° |
| 2026-05-04 17:36 | 43.78159 | 39.92104 | 24611 ft | 374 kts | 82° |
| 2026-05-04 17:36 | 43.78648 | 39.95662 | 24960 ft | 380 kts | 82° |
| 2026-05-04 17:36 | 43.79109 | 39.99281 | 25409 ft | 383 kts | 82° |
| 2026-05-04 17:36 | 43.79567 | 40.02917 | 25926 ft | 384 kts | 82° |
| 2026-05-04 17:37 | 43.80029 | 40.06569 | 26385 ft | 387 kts | 82° |
| 2026-05-04 17:37 | 43.80498 | 40.10252 | 26850 ft | 389 kts | 82° |
| 2026-05-04 17:37 | 43.80970 | 40.13946 | 27294 ft | 392 kts | 82° |
| 2026-05-04 17:37 | 43.81446 | 40.17674 | 27701 ft | 394 kts | 83° |
| 2026-05-04 17:38 | 43.81925 | 40.21421 | 28136 ft | 396 kts | 82° |
| 2026-05-04 17:38 | 43.82406 | 40.25188 | 28580 ft | 398 kts | 83° |
| 2026-05-04 17:38 | 43.82886 | 40.28961 | 29127 ft | 398 kts | 83° |
| 2026-05-04 17:38 | 43.83364 | 40.32737 | 29571 ft | 399 kts | 83° |
| 2026-05-04 17:39 | 43.84328 | 40.40370 | 30058 ft | 408 kts | 83° |
| 2026-05-04 17:39 | 43.84818 | 40.44274 | 30230 ft | 414 kts | 83° |
| 2026-05-04 17:39 | 43.85312 | 40.48221 | 30542 ft | 417 kts | 83° |
| 2026-05-04 17:40 | 43.85808 | 40.52189 | 30844 ft | 420 kts | 83° |
| 2026-05-04 17:40 | 43.86308 | 40.56188 | 31146 ft | 422 kts | 84° |
| 2026-05-04 17:40 | 43.86814 | 40.60254 | 31475 ft | 423 kts | 84° |
| 2026-05-04 17:40 | 43.87306 | 40.64221 | 31810 ft | 424 kts | 84° |
| 2026-05-04 17:41 | 43.87811 | 40.68310 | 32153 ft | 425 kts | 84° |
| 2026-05-04 17:41 | 43.88203 | 40.72312 | 32496 ft | 423 kts | 89° |
| 2026-05-04 17:41 | 43.88382 | 40.76372 | 32846 ft | 421 kts | 90° |
| 2026-05-04 17:41 | 43.88558 | 40.80438 | 33126 ft | 423 kts | 90° |
| 2026-05-04 17:42 | 43.88738 | 40.84510 | 33412 ft | 424 kts | 90° |
| 2026-05-04 17:42 | 43.88920 | 40.88592 | 33739 ft | 424 kts | 91° |
| 2026-05-04 17:42 | 43.89100 | 40.92677 | 34046 ft | 424 kts | 91° |
| 2026-05-04 17:42 | 43.89277 | 40.96765 | 34267 ft | 426 kts | 91° |
| 2026-05-04 17:43 | 43.89452 | 41.00871 | 34482 ft | 427 kts | 91° |
| 2026-05-04 17:43 | 43.89626 | 41.04983 | 34740 ft | 428 kts | 91° |
| 2026-05-04 17:43 | 43.89798 | 41.09104 | 34962 ft | 429 kts | 90° |
| 2026-05-04 17:43 | 43.89970 | 41.13244 | 35185 ft | 430 kts | 90° |
| 2026-05-04 17:44 | 43.90140 | 41.17393 | 35382 ft | 432 kts | 90° |
| 2026-05-04 17:44 | 43.90310 | 41.21554 | 35592 ft | 433 kts | 90° |
| 2026-05-04 17:44 | 43.90479 | 41.25728 | 35817 ft | 434 kts | 90° |
| 2026-05-04 17:44 | 43.90646 | 41.29909 | 36007 ft | 435 kts | 90° |
| 2026-05-04 17:45 | 43.90812 | 41.34100 | 36169 ft | 436 kts | 90° |
| 2026-05-04 17:45 | 43.90976 | 41.38290 | 36412 ft | 435 kts | 90° |
| 2026-05-04 17:45 | 43.91139 | 41.42498 | 36546 ft | 438 kts | 90° |
| 2026-05-04 17:45 | 43.91301 | 41.46721 | 36732 ft | 439 kts | 90° |
| 2026-05-04 17:46 | 43.91462 | 41.50953 | 36920 ft | 440 kts | 90° |
| 2026-05-04 17:46 | 43.91623 | 41.55200 | 37097 ft | 441 kts | 90° |
| 2026-05-04 17:46 | 43.91781 | 41.59450 | 37271 ft | 442 kts | 90° |
| 2026-05-04 17:46 | 43.91933 | 41.63715 | 37439 ft | 443 kts | 90° |
| 2026-05-04 17:47 | 43.92082 | 41.67992 | 37616 ft | 444 kts | 90° |
| 2026-05-04 17:47 | 43.92230 | 41.72274 | 37774 ft | 445 kts | 90° |
| 2026-05-04 17:47 | 43.92378 | 41.76562 | 37928 ft | 446 kts | 90° |
| 2026-05-04 17:47 | 43.92524 | 41.80858 | 38083 ft | 447 kts | 90° |
| 2026-05-04 17:48 | 43.92671 | 41.85222 | 38231 ft | 447 kts | 90° |
| 2026-05-04 17:48 | 43.92813 | 41.89516 | 38506 ft | 445 kts | 90° |
| 2026-05-04 17:48 | 43.93096 | 41.98134 | 38622 ft | 450 kts | 90° |
| 2026-05-04 17:49 | 43.93236 | 42.02467 | 38735 ft | 450 kts | 90° |
| 2026-05-04 17:49 | 43.93374 | 42.06806 | 38857 ft | 450 kts | 90° |
| 2026-05-04 17:49 | 43.93646 | 42.15490 | 38936 ft | 450 kts | 90° |
| 2026-05-04 17:50 | 43.93910 | 42.24150 | 38938 ft | 449 kts | 90° |
| 2026-05-04 17:50 | 43.94167 | 42.32805 | 38937 ft | 449 kts | 90° |
| 2026-05-04 17:51 | 43.94417 | 42.41442 | 38934 ft | 445 kts | 90° |
| 2026-05-04 17:51 | 43.94661 | 42.50055 | 38953 ft | 450 kts | 90° |
| 2026-05-04 17:52 | 43.94899 | 42.58730 | 38943 ft | 449 kts | 91° |
| 2026-05-04 17:52 | 43.95080 | 42.67383 | 38954 ft | 449 kts | 92° |
| 2026-05-04 17:53 | 43.95091 | 42.76048 | 38951 ft | 448 kts | 92° |
| 2026-05-04 17:53 | 43.95110 | 42.84697 | 38953 ft | 448 kts | 92° |
| 2026-05-04 17:54 | 43.95139 | 42.93357 | 38973 ft | 448 kts | 92° |
| 2026-05-04 17:54 | 43.95164 | 43.02015 | 38960 ft | 449 kts | 92° |
| 2026-05-04 17:55 | 43.95182 | 43.10680 | 38957 ft | 449 kts | 93° |
| 2026-05-04 17:55 | 43.95194 | 43.19356 | 38949 ft | 450 kts | 93° |
| 2026-05-04 17:56 | 43.95198 | 43.28038 | 38951 ft | 450 kts | 93° |
| 2026-05-04 17:56 | 43.95196 | 43.36721 | 38938 ft | 449 kts | 93° |
| 2026-05-04 17:57 | 43.95176 | 43.52912 | 38941 ft | 452 kts | 93° |
| 2026-05-04 17:57 | 43.95054 | 43.87774 | 38922 ft | 451 kts | 94° |
| 2026-05-04 17:58 | 43.94825 | 44.22660 | 38934 ft | 451 kts | 94° |
| 2026-05-04 17:58 | 43.94552 | 44.51638 | 38941 ft | 452 kts | 94° |
| 2026-05-04 17:59 | 43.94128 | 44.86534 | 38947 ft | 453 kts | 94° |
| 2026-05-04 18:00 | 43.93290 | 45.38968 | 38934 ft | 453 kts | 95° |
| 2026-05-04 18:00 | 43.92596 | 45.74023 | 38939 ft | 455 kts | 95° |
| 2026-05-04 18:00 | 43.93656 | 45.91486 | 38941 ft | 464 kts | 73° |
| 2026-05-04 18:01 | 43.99838 | 46.07357 | 38931 ft | 469 kts | 62° |
| 2026-05-04 18:01 | 44.13073 | 46.38665 | 38925 ft | 470 kts | 62° |
| 2026-05-04 18:02 | 44.32844 | 46.86059 | 38921 ft | 472 kts | 62° |
| 2026-05-04 18:02 | 44.45947 | 47.17903 | 38918 ft | 473 kts | 60° |
| 2026-05-04 18:03 | 44.55937 | 47.29538 | 38906 ft | 478 kts | 19° |
| 2026-05-04 18:03 | 44.68998 | 47.30303 | 38908 ft | 474 kts | 350° |
| 2026-05-04 18:03 | 44.95222 | 47.25184 | 38922 ft | 477 kts | 350° |
| 2026-05-04 18:04 | 45.21382 | 47.20075 | 38925 ft | 474 kts | 351° |
| 2026-05-04 18:05 | 45.60578 | 47.12368 | 38935 ft | 474 kts | 351° |
| 2026-05-04 18:05 | 45.86723 | 47.07205 | 38946 ft | 473 kts | 349° |
| 2026-05-04 18:05 | 45.99016 | 47.01108 | 38962 ft | 467 kts | 328° |
| 2026-05-04 18:06 | 46.21983 | 46.83526 | 38964 ft | 467 kts | 333° |
| 2026-05-04 18:06 | 46.45527 | 46.67576 | 38978 ft | 466 kts | 333° |
| 2026-05-04 18:07 | 46.68986 | 46.51528 | 38975 ft | 466 kts | 333° |
| 2026-05-04 18:07 | 46.92397 | 46.35356 | 39001 ft | 464 kts | 333° |
| 2026-05-04 18:08 | 46.95099 | 46.33480 | 38996 ft | 464 kts | 333° |
| 2026-05-04 18:12 | 46.95181 | 46.33422 | 38997 ft | 464 kts | 333° |
| 2026-05-04 18:13 | 46.99722 | 46.30264 | 38999 ft | 464 kts | 333° |
| 2026-05-04 18:14 | 47.08455 | 46.24170 | 39003 ft | 463 kts | 333° |